createdAt,value
2023-04-09T00:00:00.416Z,101642
2023-04-09T00:01:05.305Z,101642
2023-04-09T00:02:00.488Z,101642
2023-04-09T00:03:00.511Z,101637
2023-04-09T00:04:00.436Z,101637
2023-04-09T00:05:00.689Z,101637
2023-04-09T00:06:00.458Z,101637
2023-04-09T00:07:00.437Z,101637
2023-04-09T00:08:00.378Z,101636
2023-04-09T00:09:00.423Z,101636
2023-04-09T00:10:00.411Z,101636
2023-04-09T00:11:00.457Z,101636
2023-04-09T00:12:00.463Z,101636
2023-04-09T00:13:00.467Z,101632
2023-04-09T00:14:00.493Z,101632
2023-04-09T00:15:00.468Z,101632
2023-04-09T00:16:00.387Z,101632
2023-04-09T00:17:00.470Z,101632
2023-04-09T00:18:00.566Z,101629
2023-04-09T00:19:00.426Z,101629
2023-04-09T00:20:00.417Z,101629
2023-04-09T00:21:00.461Z,101629
2023-04-09T00:22:00.365Z,101629
2023-04-09T00:23:00.460Z,101626
2023-04-09T00:24:00.410Z,101626
2023-04-09T00:25:00.491Z,101626
2023-04-09T00:26:00.382Z,101626
2023-04-09T00:27:00.423Z,101626
2023-04-09T00:28:00.461Z,101618
2023-04-09T00:29:00.414Z,101618
2023-04-09T00:30:00.375Z,101618
2023-04-09T00:31:00.738Z,101618
2023-04-09T00:32:00.444Z,101618
2023-04-09T00:33:00.525Z,101616
2023-04-09T00:34:00.445Z,101616
2023-04-09T00:35:00.373Z,101616
2023-04-09T00:36:00.457Z,101616
2023-04-09T00:37:00.410Z,101616
2023-04-09T00:38:00.417Z,101609
2023-04-09T00:39:00.563Z,101609
2023-04-09T00:40:00.462Z,101609
2023-04-09T00:41:00.450Z,101609
2023-04-09T00:42:00.447Z,101609
2023-04-09T00:43:00.420Z,101608
2023-04-09T00:44:00.410Z,101608
2023-04-09T00:45:00.453Z,101608
2023-04-09T00:46:00.505Z,101608
2023-04-09T00:47:00.429Z,101608
2023-04-09T00:48:00.488Z,101613
2023-04-09T00:49:00.494Z,101613
2023-04-09T00:50:01.072Z,101613
2023-04-09T00:51:00.408Z,101613
2023-04-09T00:52:00.452Z,101613
2023-04-09T00:53:00.417Z,101607
2023-04-09T00:54:00.440Z,101607
2023-04-09T00:55:03.044Z,101607
2023-04-09T00:56:01.071Z,101607
2023-04-09T00:57:00.412Z,101607
2023-04-09T00:58:00.733Z,101594
2023-04-09T00:59:00.581Z,101594
2023-04-09T01:00:00.761Z,101594
2023-04-09T01:01:00.516Z,101594
2023-04-09T01:02:00.502Z,101594
2023-04-09T01:03:01.038Z,101589
2023-04-09T01:04:00.498Z,101589
2023-04-09T01:05:00.451Z,101589
2023-04-09T01:06:10.234Z,101589
2023-04-09T01:07:08.890Z,101589
2023-04-09T01:08:02.764Z,101584
2023-04-09T01:09:09.152Z,101584
2023-04-09T01:10:10.247Z,101584
2023-04-09T01:11:10.238Z,101584
2023-04-09T01:12:10.243Z,101584
2023-04-09T01:13:10.244Z,101577
2023-04-09T01:14:04.172Z,101577
2023-04-09T01:15:08.839Z,101577
2023-04-09T01:16:02.045Z,101577
2023-04-09T01:17:03.755Z,101577
2023-04-09T01:18:05.296Z,101573
2023-04-09T01:19:03.987Z,101573
2023-04-09T01:20:07.998Z,101573
2023-04-09T01:21:00.434Z,101573
2023-04-09T01:22:01.758Z,101573
2023-04-09T01:23:06.400Z,101569
2023-04-09T01:24:10.228Z,101569
2023-04-09T01:25:10.234Z,101569
2023-04-09T01:26:03.443Z,101569
2023-04-09T01:27:04.278Z,101569
2023-04-09T01:28:10.226Z,101559
2023-04-09T01:29:01.522Z,101559
2023-04-09T01:30:03.054Z,101559
2023-04-09T01:31:03.054Z,101559
2023-04-09T01:32:01.947Z,101559
2023-04-09T01:33:01.092Z,101560
2023-04-09T01:34:00.723Z,101560
2023-04-09T01:35:01.548Z,101560
2023-04-09T01:36:00.463Z,101560
2023-04-09T01:37:01.662Z,101560
2023-04-09T01:38:01.233Z,101557
2023-04-09T01:39:00.850Z,101557
2023-04-09T01:40:00.630Z,101557
2023-04-09T01:41:00.629Z,101557
2023-04-09T01:42:00.569Z,101557
2023-04-09T01:43:01.183Z,101557
2023-04-09T01:44:01.876Z,101557
2023-04-09T01:45:01.227Z,101557
2023-04-09T01:46:01.026Z,101557
2023-04-09T01:47:00.502Z,101557
2023-04-09T01:48:01.215Z,101555
2023-04-09T01:49:00.663Z,101555
2023-04-09T01:50:01.384Z,101555
2023-04-09T01:51:00.456Z,101555
2023-04-09T01:52:00.877Z,101555
2023-04-09T01:53:00.561Z,101553
2023-04-09T01:54:00.526Z,101553
2023-04-09T01:55:00.478Z,101553
2023-04-09T01:56:00.650Z,101553
2023-04-09T01:57:00.416Z,101553
2023-04-09T01:58:00.411Z,101549
2023-04-09T01:59:00.408Z,101549
2023-04-09T02:00:00.477Z,101549
2023-04-09T02:01:07.895Z,101549
2023-04-09T02:02:02.179Z,101549
2023-04-09T02:03:10.171Z,101540
2023-04-09T02:04:02.463Z,101540
2023-04-09T02:05:03.618Z,101540
2023-04-09T02:06:10.250Z,101540
2023-04-09T02:07:05.220Z,101540
2023-04-09T02:08:01.640Z,101535
2023-04-09T02:09:01.635Z,101535
2023-04-09T02:10:00.707Z,101535
2023-04-09T02:11:03.051Z,101535
2023-04-09T02:12:02.115Z,101535
2023-04-09T02:13:00.856Z,101533
2023-04-09T02:14:00.480Z,101533
2023-04-09T02:15:01.651Z,101533
2023-04-09T02:16:00.918Z,101533
2023-04-09T02:17:00.455Z,101533
2023-04-09T02:18:00.680Z,101534
2023-04-09T02:19:00.405Z,101534
2023-04-09T02:20:00.420Z,101534
2023-04-09T02:21:00.449Z,101534
2023-04-09T02:22:03.086Z,101534
2023-04-09T02:23:00.389Z,101526
2023-04-09T02:24:00.413Z,101526
2023-04-09T02:25:00.473Z,101526
2023-04-09T02:26:00.525Z,101526
2023-04-09T02:27:00.442Z,101526
2023-04-09T02:28:00.405Z,101528
2023-04-09T02:29:00.414Z,101528
2023-04-09T02:30:00.425Z,101528
2023-04-09T02:31:00.446Z,101528
2023-04-09T02:32:00.531Z,101528
2023-04-09T02:33:00.435Z,101532
2023-04-09T02:34:00.408Z,101532
2023-04-09T02:35:00.409Z,101532
2023-04-09T02:36:00.472Z,101532
2023-04-09T02:37:00.538Z,101532
2023-04-09T02:38:01.789Z,101529
2023-04-09T02:39:00.414Z,101529
2023-04-09T02:40:00.453Z,101529
2023-04-09T02:41:00.434Z,101529
2023-04-09T02:42:00.509Z,101529
2023-04-09T02:43:00.364Z,101524
2023-04-09T02:44:00.444Z,101524
2023-04-09T02:45:00.373Z,101524
2023-04-09T02:46:00.473Z,101524
2023-04-09T02:47:00.450Z,101524
2023-04-09T02:48:00.451Z,101526
2023-04-09T02:49:00.476Z,101526
2023-04-09T02:50:00.453Z,101526
2023-04-09T02:51:00.428Z,101526
2023-04-09T02:52:00.422Z,101526
2023-04-09T02:53:00.431Z,101526
2023-04-09T02:54:00.497Z,101526
2023-04-09T02:55:00.602Z,101526
2023-04-09T02:56:00.377Z,101526
2023-04-09T02:57:00.575Z,101526
2023-04-09T02:58:00.428Z,101525
2023-04-09T02:59:00.381Z,101525
2023-04-09T03:00:00.479Z,101525
2023-04-09T03:01:00.407Z,101525
2023-04-09T03:02:00.548Z,101525
2023-04-09T03:03:00.532Z,101522
2023-04-09T03:04:00.513Z,101522
2023-04-09T03:05:00.416Z,101522
2023-04-09T03:06:00.422Z,101522
2023-04-09T03:07:00.435Z,101522
2023-04-09T03:08:00.591Z,101519
2023-04-09T03:09:00.442Z,101519
2023-04-09T03:10:00.433Z,101519
2023-04-09T03:11:00.422Z,101519
2023-04-09T03:12:00.522Z,101519
2023-04-09T03:13:00.451Z,101519
2023-04-09T03:14:00.461Z,101519
2023-04-09T03:15:00.477Z,101519
2023-04-09T03:16:00.533Z,101519
2023-04-09T03:17:00.520Z,101519
2023-04-09T03:18:00.436Z,101512
2023-04-09T03:19:00.420Z,101512
2023-04-09T03:20:00.431Z,101512
2023-04-09T03:21:03.583Z,101512
2023-04-09T03:22:00.371Z,101512
2023-04-09T03:23:00.430Z,101510
2023-04-09T03:24:00.432Z,101510
2023-04-09T03:25:00.965Z,101510
2023-04-09T03:26:01.041Z,101510
2023-04-09T03:27:00.454Z,101510
2023-04-09T03:28:00.456Z,101502
2023-04-09T03:29:00.732Z,101502
2023-04-09T03:30:00.380Z,101502
2023-04-09T03:31:00.405Z,101502
2023-04-09T03:32:00.459Z,101502
2023-04-09T03:33:00.440Z,101505
2023-04-09T03:34:00.445Z,101505
2023-04-09T03:35:00.428Z,101505
2023-04-09T03:36:00.520Z,101505
2023-04-09T03:37:00.418Z,101505
2023-04-09T03:38:00.453Z,101507
2023-04-09T03:39:00.478Z,101507
2023-04-09T03:40:00.482Z,101507
2023-04-09T03:41:00.375Z,101507
2023-04-09T03:42:00.425Z,101507
2023-04-09T03:43:00.446Z,101504
2023-04-09T03:44:00.427Z,101504
2023-04-09T03:45:00.426Z,101504
2023-04-09T03:46:00.414Z,101504
2023-04-09T03:47:00.424Z,101504
2023-04-09T03:48:00.384Z,101501
2023-04-09T03:49:00.474Z,101501
2023-04-09T03:50:00.461Z,101501
2023-04-09T03:51:00.377Z,101501
2023-04-09T03:52:00.471Z,101501
2023-04-09T03:53:00.422Z,101494
2023-04-09T03:54:00.428Z,101494
2023-04-09T03:55:01.832Z,101494
2023-04-09T03:56:00.382Z,101494
2023-04-09T03:57:00.366Z,101494
2023-04-09T03:58:00.380Z,101494
2023-04-09T03:59:00.375Z,101494
2023-04-09T04:00:00.472Z,101494
2023-04-09T04:01:00.718Z,101494
2023-04-09T04:02:00.620Z,101494
2023-04-09T04:03:00.586Z,101491
2023-04-09T04:04:00.636Z,101491
2023-04-09T04:05:00.427Z,101491
2023-04-09T04:06:00.622Z,101491
2023-04-09T04:07:01.569Z,101491
2023-04-09T04:08:00.424Z,101494
2023-04-09T04:09:00.426Z,101494
2023-04-09T04:10:00.409Z,101494
2023-04-09T04:11:03.779Z,101494
2023-04-09T04:12:00.484Z,101494
2023-04-09T04:13:00.629Z,101494
2023-04-09T04:14:00.369Z,101494
2023-04-09T04:15:00.737Z,101494
2023-04-09T04:16:00.479Z,101494
2023-04-09T04:17:00.443Z,101494
2023-04-09T04:18:00.424Z,101486
2023-04-09T04:19:00.421Z,101486
2023-04-09T04:20:00.415Z,101486
2023-04-09T04:21:00.424Z,101486
2023-04-09T04:22:00.404Z,101486
2023-04-09T04:23:00.421Z,101488
2023-04-09T04:24:00.410Z,101488
2023-04-09T04:25:00.432Z,101488
2023-04-09T04:26:00.413Z,101488
2023-04-09T04:27:00.417Z,101488
2023-04-09T04:28:00.442Z,101486
2023-04-09T04:29:00.422Z,101486
2023-04-09T04:30:00.470Z,101486
2023-04-09T04:31:00.450Z,101486
2023-04-09T04:32:00.603Z,101486
2023-04-09T04:33:00.481Z,101482
2023-04-09T04:34:00.558Z,101482
2023-04-09T04:35:00.366Z,101482
2023-04-09T04:36:04.274Z,101482
2023-04-09T04:37:00.704Z,101482
2023-04-09T04:38:00.447Z,101482
2023-04-09T04:39:00.463Z,101482
2023-04-09T04:40:00.760Z,101482
2023-04-09T04:41:00.550Z,101482
2023-04-09T04:42:00.460Z,101482
2023-04-09T04:43:00.458Z,101475
2023-04-09T04:44:00.461Z,101475
2023-04-09T04:45:00.630Z,101475
2023-04-09T04:46:00.395Z,101475
2023-04-09T04:47:00.422Z,101475
2023-04-09T04:48:00.489Z,101474
2023-04-09T04:49:00.420Z,101474
2023-04-09T04:50:00.465Z,101474
2023-04-09T04:51:00.855Z,101474
2023-04-09T04:52:00.436Z,101474
2023-04-09T04:53:00.427Z,101462
2023-04-09T04:54:00.372Z,101462
2023-04-09T04:55:00.477Z,101462
2023-04-09T04:56:00.405Z,101462
2023-04-09T04:57:00.409Z,101462
2023-04-09T04:58:00.411Z,101458
2023-04-09T04:59:00.438Z,101458
2023-04-09T05:00:00.445Z,101458
2023-04-09T05:01:00.433Z,101458
2023-04-09T05:02:00.501Z,101458
2023-04-09T05:03:00.536Z,101463
2023-04-09T05:04:00.491Z,101463
2023-04-09T05:05:00.365Z,101463
2023-04-09T05:06:00.454Z,101463
2023-04-09T05:07:00.452Z,101463
2023-04-09T05:08:00.579Z,101465
2023-04-09T05:09:00.456Z,101465
2023-04-09T05:10:00.455Z,101465
2023-04-09T05:11:00.409Z,101465
2023-04-09T05:12:00.451Z,101465
2023-04-09T05:13:00.474Z,101457
2023-04-09T05:14:00.411Z,101457
2023-04-09T05:15:00.450Z,101457
2023-04-09T05:16:00.434Z,101457
2023-04-09T05:17:00.428Z,101457
2023-04-09T05:18:00.503Z,101457
2023-04-09T05:19:00.432Z,101457
2023-04-09T05:20:00.410Z,101457
2023-04-09T05:21:00.468Z,101457
2023-04-09T05:22:00.596Z,101457
2023-04-09T05:23:00.419Z,101452
2023-04-09T05:24:00.442Z,101452
2023-04-09T05:25:00.452Z,101452
2023-04-09T05:26:00.466Z,101452
2023-04-09T05:27:00.645Z,101452
2023-04-09T05:28:00.433Z,101450
2023-04-09T05:29:00.428Z,101450
2023-04-09T05:30:01.165Z,101450
2023-04-09T05:31:00.632Z,101450
2023-04-09T05:32:00.654Z,101450
2023-04-09T05:33:00.411Z,101446
2023-04-09T05:34:00.428Z,101446
2023-04-09T05:35:00.534Z,101446
2023-04-09T05:36:00.515Z,101446
2023-04-09T05:37:00.426Z,101446
2023-04-09T05:38:00.418Z,101454
2023-04-09T05:39:00.567Z,101454
2023-04-09T05:40:00.421Z,101454
2023-04-09T05:41:00.372Z,101454
2023-04-09T05:42:00.424Z,101454
2023-04-09T05:43:00.467Z,101454
2023-04-09T05:44:01.008Z,101454
2023-04-09T05:45:00.455Z,101454
2023-04-09T05:46:00.442Z,101454
2023-04-09T05:47:00.416Z,101454
2023-04-09T05:48:00.481Z,101442
2023-04-09T05:49:00.439Z,101442
2023-04-09T05:50:00.423Z,101442
2023-04-09T05:52:00.601Z,101442
2023-04-09T05:53:00.414Z,101448
2023-04-09T05:54:00.568Z,101448
2023-04-09T05:55:00.616Z,101448
2023-04-09T05:56:00.726Z,101448
2023-04-09T05:57:00.421Z,101448
2023-04-09T05:58:00.416Z,101455
2023-04-09T05:59:00.421Z,101455
2023-04-09T06:00:00.458Z,101455
2023-04-09T06:01:00.432Z,101455
2023-04-09T06:02:00.479Z,101455
2023-04-09T06:03:00.481Z,101440
2023-04-09T06:04:00.976Z,101440
2023-04-09T06:05:00.563Z,101440
2023-04-09T06:06:00.451Z,101440
2023-04-09T06:07:00.586Z,101440
2023-04-09T06:08:00.458Z,101440
2023-04-09T06:09:00.428Z,101440
2023-04-09T06:10:00.414Z,101440
2023-04-09T06:11:00.454Z,101440
2023-04-09T06:12:00.427Z,101440
2023-04-09T06:13:00.416Z,101433
2023-04-09T06:14:00.419Z,101433
2023-04-09T06:15:00.448Z,101433
2023-04-09T06:16:02.541Z,101433
2023-04-09T06:17:00.459Z,101433
2023-04-09T06:18:00.407Z,101440
2023-04-09T06:19:00.425Z,101440
2023-04-09T06:20:00.419Z,101440
2023-04-09T06:21:01.214Z,101440
2023-04-09T06:22:00.417Z,101440
2023-04-09T06:23:00.453Z,101433
2023-04-09T06:24:00.429Z,101433
2023-04-09T06:25:00.380Z,101433
2023-04-09T06:26:00.423Z,101433
2023-04-09T06:27:00.429Z,101433
2023-04-09T06:28:00.419Z,101427
2023-04-09T06:29:00.447Z,101427
2023-04-09T06:30:00.428Z,101427
2023-04-09T06:31:00.492Z,101427
2023-04-09T06:32:00.408Z,101427
2023-04-09T06:33:00.442Z,101421
2023-04-09T06:34:00.469Z,101421
2023-04-09T06:35:00.472Z,101421
2023-04-09T06:36:00.483Z,101421
2023-04-09T06:37:00.412Z,101421
2023-04-09T06:38:00.453Z,101419
2023-04-09T06:39:00.442Z,101419
2023-04-09T06:40:01.522Z,101419
2023-04-09T06:41:00.421Z,101419
2023-04-09T06:42:00.463Z,101419
2023-04-09T06:43:00.459Z,101412
2023-04-09T06:44:00.412Z,101412
2023-04-09T06:45:00.405Z,101412
2023-04-09T06:46:00.433Z,101412
2023-04-09T06:47:00.413Z,101412
2023-04-09T06:48:00.534Z,101405
2023-04-09T06:49:00.645Z,101405
2023-04-09T06:50:00.453Z,101405
2023-04-09T06:51:00.464Z,101405
2023-04-09T06:52:00.493Z,101405
2023-04-09T06:53:00.911Z,101399
2023-04-09T06:54:00.471Z,101399
2023-04-09T06:55:00.449Z,101399
2023-04-09T06:56:00.475Z,101399
2023-04-09T06:57:00.419Z,101399
2023-04-09T06:58:00.454Z,101402
2023-04-09T06:59:00.446Z,101402
2023-04-09T07:00:00.451Z,101402
2023-04-09T07:01:00.539Z,101402
2023-04-09T07:02:00.759Z,101402
2023-04-09T07:03:00.729Z,101389
2023-04-09T07:04:00.518Z,101389
2023-04-09T07:05:00.454Z,101389
2023-04-09T07:06:00.453Z,101389
2023-04-09T07:07:00.462Z,101389
2023-04-09T07:08:00.456Z,101391
2023-04-09T07:09:00.477Z,101391
2023-04-09T07:10:00.464Z,101391
2023-04-09T07:11:00.462Z,101391
2023-04-09T07:12:00.452Z,101391
2023-04-09T07:13:00.506Z,101407
2023-04-09T07:14:00.473Z,101407
2023-04-09T07:15:02.323Z,101407
2023-04-09T07:16:00.610Z,101407
2023-04-09T07:17:00.464Z,101407
2023-04-09T07:18:00.504Z,101405
2023-04-09T07:19:00.454Z,101405
2023-04-09T07:20:00.620Z,101405
2023-04-09T07:21:00.475Z,101405
2023-04-09T07:22:00.460Z,101405
2023-04-09T07:23:00.455Z,101411
2023-04-09T07:24:00.459Z,101411
2023-04-09T07:25:00.500Z,101411
2023-04-09T07:26:02.906Z,101411
2023-04-09T07:27:02.796Z,101411
2023-04-09T07:28:00.506Z,101417
2023-04-09T07:29:00.514Z,101417
2023-04-09T07:30:00.581Z,101417
2023-04-09T07:31:00.634Z,101417
2023-04-09T07:32:00.557Z,101417
2023-04-09T07:33:00.630Z,101413
2023-04-09T07:34:00.798Z,101413
2023-04-09T07:35:01.829Z,101413
2023-04-09T07:36:00.566Z,101413
2023-04-09T07:37:00.450Z,101413
2023-04-09T07:38:00.582Z,101422
2023-04-09T07:39:00.453Z,101422
2023-04-09T07:40:00.544Z,101422
2023-04-09T07:41:00.502Z,101422
2023-04-09T07:42:01.835Z,101422
2023-04-09T07:43:00.456Z,101424
2023-04-09T07:44:00.537Z,101424
2023-04-09T07:45:00.531Z,101424
2023-04-09T07:46:00.550Z,101424
2023-04-09T07:47:00.514Z,101424
2023-04-09T07:48:00.566Z,101418
2023-04-09T07:49:00.542Z,101418
2023-04-09T07:50:00.552Z,101418
2023-04-09T07:51:00.525Z,101418
2023-04-09T07:52:00.618Z,101418
2023-04-09T07:53:00.571Z,101406
2023-04-09T07:54:00.488Z,101406
2023-04-09T07:55:00.549Z,101406
2023-04-09T07:56:00.492Z,101406
2023-04-09T07:57:00.502Z,101406
2023-04-09T07:58:00.495Z,101417
2023-04-09T07:59:00.508Z,101417
2023-04-09T08:00:00.621Z,101417
2023-04-09T08:01:00.530Z,101417
2023-04-09T08:02:00.673Z,101417
2023-04-09T08:03:00.803Z,101403
2023-04-09T08:04:00.798Z,101403
2023-04-09T08:05:00.696Z,101403
2023-04-09T08:06:00.528Z,101403
2023-04-09T08:07:00.532Z,101403
2023-04-09T08:08:00.509Z,101400
2023-04-09T08:09:00.534Z,101400
2023-04-09T08:10:00.582Z,101400
2023-04-09T08:11:00.514Z,101400
2023-04-09T08:12:00.527Z,101400
2023-04-09T08:13:00.548Z,101403
2023-04-09T08:14:00.534Z,101403
2023-04-09T08:15:00.547Z,101403
2023-04-09T08:16:00.592Z,101403
2023-04-09T08:17:00.553Z,101403
2023-04-09T08:18:00.594Z,101400
2023-04-09T08:19:00.533Z,101400
2023-04-09T08:20:00.554Z,101400
2023-04-09T08:21:03.518Z,101400
2023-04-09T08:22:00.753Z,101400
2023-04-09T08:23:00.495Z,101398
2023-04-09T08:24:00.546Z,101398
2023-04-09T08:25:02.695Z,101398
2023-04-09T08:26:00.559Z,101398
2023-04-09T08:27:00.512Z,101398
2023-04-09T08:28:00.533Z,101396
2023-04-09T08:29:00.534Z,101396
2023-04-09T08:30:00.578Z,101396
2023-04-09T08:31:00.521Z,101396
2023-04-09T08:32:00.672Z,101396
2023-04-09T08:33:00.635Z,101395
2023-04-09T08:34:00.528Z,101395
2023-04-09T08:35:00.489Z,101395
2023-04-09T08:36:03.070Z,101395
2023-04-09T08:37:00.401Z,101395
2023-04-09T08:38:00.462Z,101395
2023-04-09T08:39:00.779Z,101395
2023-04-09T08:40:00.385Z,101395
2023-04-09T08:41:00.514Z,101395
2023-04-09T08:42:00.473Z,101395
2023-04-09T08:43:03.109Z,101384
2023-04-09T08:44:00.479Z,101384
2023-04-09T08:45:02.640Z,101384
2023-04-09T08:46:00.639Z,101384
2023-04-09T08:47:00.604Z,101384
2023-04-09T08:48:01.955Z,101387
2023-04-09T08:49:00.795Z,101387
2023-04-09T08:50:00.570Z,101387
2023-04-09T08:51:00.562Z,101387
2023-04-09T08:52:01.130Z,101387
2023-04-09T08:53:03.405Z,101400
2023-04-09T08:54:03.932Z,101400
2023-04-09T08:55:00.589Z,101400
2023-04-09T08:56:00.459Z,101400
2023-04-09T08:57:03.674Z,101400
2023-04-09T08:58:03.269Z,101398
2023-04-09T08:59:00.463Z,101398
2023-04-09T09:00:00.507Z,101398
2023-04-09T09:01:00.520Z,101398
2023-04-09T09:02:08.771Z,101398
2023-04-09T09:03:01.474Z,101406
2023-04-09T09:04:01.746Z,101406
2023-04-09T09:05:00.490Z,101406
2023-04-09T09:06:00.511Z,101406
2023-04-09T09:07:04.955Z,101406
2023-04-09T09:08:00.596Z,101415
2023-04-09T09:09:00.380Z,101415
2023-04-09T09:10:00.898Z,101415
2023-04-09T09:11:00.376Z,101415
2023-04-09T09:12:00.474Z,101415
2023-04-09T09:13:00.716Z,101408
2023-04-09T09:14:01.567Z,101408
2023-04-09T09:15:00.630Z,101408
2023-04-09T09:16:10.232Z,101408
2023-04-09T09:17:01.322Z,101408
2023-04-09T09:18:00.429Z,101397
2023-04-09T09:19:00.918Z,101397
2023-04-09T09:20:10.223Z,101397
2023-04-09T09:21:10.237Z,101397
2023-04-09T09:22:01.995Z,101397
2023-04-09T09:23:01.722Z,101388
2023-04-09T09:24:00.524Z,101388
2023-04-09T09:25:00.408Z,101388
2023-04-09T09:26:09.613Z,101388
2023-04-09T09:27:00.816Z,101388
2023-04-09T09:28:09.074Z,101383
2023-04-09T09:29:02.284Z,101383
2023-04-09T09:30:00.411Z,101383
2023-04-09T09:31:06.721Z,101383
2023-04-09T09:32:00.525Z,101383
2023-04-09T09:33:10.238Z,101379
2023-04-09T09:34:07.355Z,101379
2023-04-09T09:35:01.835Z,101379
2023-04-09T09:36:00.571Z,101379
2023-04-09T09:37:00.410Z,101379
2023-04-09T09:38:02.036Z,101382
2023-04-09T09:39:01.754Z,101382
2023-04-09T09:40:00.715Z,101382
2023-04-09T09:41:10.250Z,101382
2023-04-09T09:42:07.622Z,101382
2023-04-09T09:43:00.414Z,101383
2023-04-09T09:44:00.694Z,101383
2023-04-09T09:45:00.474Z,101383
2023-04-09T09:46:00.430Z,101383
2023-04-09T09:47:02.663Z,101383
2023-04-09T09:48:00.492Z,101374
2023-04-09T09:49:00.447Z,101374
2023-04-09T09:50:00.414Z,101374
2023-04-09T09:51:01.948Z,101374
2023-04-09T09:52:01.797Z,101374
2023-04-09T09:53:02.340Z,101359
2023-04-09T09:54:01.229Z,101359
2023-04-09T09:55:01.730Z,101359
2023-04-09T09:56:00.439Z,101359
2023-04-09T11:11:01.289Z,101265
2023-04-09T11:12:00.473Z,101265
2023-04-09T11:13:00.848Z,101265
2023-04-09T11:14:00.481Z,101265
2023-04-09T11:15:00.515Z,101254
2023-04-09T11:16:00.732Z,101254
2023-04-09T11:17:01.964Z,101254
2023-04-09T11:18:00.628Z,101254
2023-04-09T11:19:00.624Z,101254
2023-04-09T11:20:01.637Z,101246
2023-04-09T11:21:01.906Z,101246
2023-04-09T11:22:02.613Z,101246
2023-04-09T11:23:00.850Z,101246
2023-04-09T11:24:00.489Z,101246
2023-04-09T11:25:00.634Z,101233
2023-04-09T11:26:00.388Z,101233
2023-04-09T11:27:00.412Z,101233
2023-04-09T11:28:02.021Z,101233
2023-04-09T11:29:04.055Z,101233
2023-04-09T11:30:00.472Z,101230
2023-04-09T11:31:03.805Z,101230
2023-04-09T11:32:00.535Z,101230
2023-04-09T11:33:00.631Z,101230
2023-04-09T11:34:00.735Z,101230
2023-04-09T11:35:00.505Z,101222
2023-04-09T11:36:03.397Z,101222
2023-04-09T11:37:00.390Z,101222
2023-04-09T11:38:00.473Z,101222
2023-04-09T11:39:01.269Z,101222
2023-04-09T11:40:00.385Z,101216
2023-04-09T11:41:00.670Z,101216
2023-04-09T11:42:00.387Z,101216
2023-04-09T11:43:00.480Z,101216
2023-04-09T11:44:02.545Z,101216
2023-04-09T11:45:00.692Z,101211
2023-04-09T11:46:00.636Z,101211
2023-04-09T11:47:00.771Z,101211
2023-04-09T11:48:00.973Z,101211
2023-04-09T11:49:00.763Z,101211
2023-04-09T11:50:00.620Z,101203
2023-04-09T11:51:00.934Z,101203
2023-04-09T11:52:00.684Z,101203
2023-04-09T11:53:00.391Z,101203
2023-04-09T11:54:01.866Z,101203
2023-04-09T11:55:01.021Z,101206
2023-04-09T11:56:00.391Z,101206
2023-04-09T11:57:02.615Z,101206
2023-04-09T11:58:00.553Z,101206
2023-04-09T11:59:00.790Z,101206
2023-04-09T12:00:05.380Z,101196
2023-04-09T12:01:00.542Z,101196
2023-04-09T12:02:01.324Z,101196
2023-04-09T12:03:01.525Z,101196
2023-04-09T12:04:00.898Z,101196
2023-04-09T12:05:03.645Z,101181
2023-04-09T12:06:01.060Z,101181
2023-04-09T12:07:00.649Z,101181
2023-04-09T12:08:01.357Z,101181
2023-04-09T12:09:00.398Z,101181
2023-04-09T12:10:04.667Z,101178
2023-04-09T12:11:10.308Z,101178
2023-04-09T12:12:00.389Z,101178
2023-04-09T12:13:01.263Z,101178
2023-04-09T12:14:01.101Z,101178
2023-04-09T12:15:05.896Z,101173
2023-04-09T12:16:00.746Z,101173
2023-04-09T12:17:00.563Z,101173
2023-04-09T12:18:00.684Z,101173
2023-04-09T12:19:08.041Z,101173
2023-04-09T12:20:00.389Z,101174
2023-04-09T12:21:00.535Z,101174
2023-04-09T12:22:00.420Z,101174
2023-04-09T12:23:01.550Z,101174
2023-04-09T12:24:00.400Z,101174
2023-04-09T12:25:00.382Z,101174
2023-04-09T12:26:00.379Z,101174
2023-04-09T12:27:00.464Z,101174
2023-04-09T12:28:00.401Z,101174
2023-04-09T12:29:00.398Z,101174
2023-04-09T12:30:00.384Z,101156
2023-04-09T12:31:00.381Z,101156
2023-04-09T12:32:00.454Z,101156
2023-04-09T12:33:01.577Z,101156
2023-04-09T12:34:00.464Z,101156
2023-04-09T12:35:00.386Z,101161
2023-04-09T12:36:00.505Z,101161
2023-04-09T12:37:00.385Z,101161
2023-04-09T12:38:00.457Z,101161
2023-04-09T12:39:00.868Z,101161
2023-04-09T12:40:00.376Z,101151
2023-04-09T12:41:01.814Z,101151
2023-04-09T12:42:00.387Z,101151
2023-04-09T12:43:00.445Z,101151
2023-04-09T12:44:00.391Z,101151
2023-04-09T12:45:00.919Z,101153
2023-04-09T12:46:00.412Z,101153
2023-04-09T12:47:00.482Z,101153
2023-04-09T12:48:00.449Z,101153
2023-04-09T12:49:00.404Z,101153
2023-04-09T12:50:00.459Z,101158
2023-04-09T12:51:00.713Z,101158
2023-04-09T12:52:00.412Z,101158
2023-04-09T12:53:00.424Z,101158
2023-04-09T12:54:00.402Z,101158
2023-04-09T12:55:00.619Z,101140
2023-04-09T12:56:00.392Z,101140
2023-04-09T12:57:00.419Z,101140
2023-04-09T12:58:00.376Z,101140
2023-04-09T12:59:00.408Z,101140
2023-04-09T13:00:00.404Z,101137
2023-04-09T13:01:00.634Z,101137
2023-04-09T13:02:00.609Z,101137
2023-04-09T13:03:00.530Z,101137
2023-04-09T13:04:00.543Z,101137
2023-04-09T13:05:00.419Z,101134
2023-04-09T13:06:00.502Z,101134
2023-04-09T13:07:00.406Z,101134
2023-04-09T13:08:00.713Z,101134
2023-04-09T13:09:00.472Z,101134
2023-04-09T13:10:00.415Z,101126
2023-04-09T13:11:00.407Z,101126
2023-04-09T13:12:00.772Z,101126
2023-04-09T13:13:00.387Z,101126
2023-04-09T13:14:00.397Z,101126
2023-04-09T13:15:00.426Z,101130
2023-04-09T13:16:00.396Z,101130
2023-04-09T13:17:00.460Z,101130
2023-04-09T13:18:00.453Z,101130
2023-04-09T13:19:00.414Z,101130
2023-04-09T13:20:00.662Z,101126
2023-04-09T13:21:00.405Z,101126
2023-04-09T13:22:00.492Z,101126
2023-04-09T13:23:00.868Z,101126
2023-04-09T13:24:00.450Z,101126
2023-04-09T13:25:00.670Z,101116
2023-04-09T13:26:00.423Z,101116
2023-04-09T13:27:00.705Z,101116
2023-04-09T13:28:00.408Z,101116
2023-04-09T13:29:00.390Z,101116
2023-04-09T13:30:00.429Z,101116
2023-04-09T13:31:01.041Z,101116
2023-04-09T13:32:00.662Z,101116
2023-04-09T13:33:00.404Z,101116
2023-04-09T13:34:00.884Z,101116
2023-04-09T13:35:00.422Z,101100
2023-04-09T13:36:00.433Z,101100
2023-04-09T13:37:01.108Z,101100
2023-04-09T13:38:00.405Z,101100
2023-04-09T13:39:00.505Z,101100
2023-04-09T13:40:00.415Z,101094
2023-04-09T13:41:00.484Z,101094
2023-04-09T13:42:01.353Z,101094
2023-04-09T13:43:00.408Z,101094